Impacts METAR Board
IDs:

KILE - Killeen/Skylark Fld, TX, US

Updated at: 0100 UTC 01 Nov 2020
Potential Impact None Slight Moderate High
Time 31/13Z 31/14Z 31/15Z 31/16Z 31/17Z 31/18Z 31/19Z 31/20Z 31/21Z 31/22Z 31/23Z 01/00Z 01/01Z
Temp39 47 54 61 65 69 72 73 72 74 73 68 63
Dewpt38 41 42 42 42 42 42 40 42 43 42 43 43
Altim30.22 30.23 30.24 30.23 30.22 30.19 30.16 30.12 30.09 30.09 30.09 30.10 30.12
VIS10 10 10 10 10 10 10 10 10 10 10 10 10
CIG-- -- -- -- -- -- -- -- -- -- -- -- --
CoverCLRCLRCLRCLRCLRCLRCLRCLRCLRCLRCLRCLRCLR
FltCatVFRVFRVFRVFRVFRVFRVFRVFRVFRVFRVFRVFRVFR
WX--------------------------
WDir00020018001800150140150120160
WSpd0 0 0 8 6 6 5 6 7 8 8 4 5
WGst-- -- -- -- -- -- -- -- -- -- -- -- --
Raw hourly METARs
KILE 311256Z AUTO 00000KT 10SM CLR 04/03 A3022 RMK AO2 SLP229 T00390033
KILE 311356Z AUTO 00000KT 10SM CLR 08/05 A3023 RMK AO2 SLP233 T00830050
KILE 311456Z AUTO 00000KT 10SM CLR 12/06 A3024 RMK AO2 SLP238 T01220056 53008
KILE 311556Z AUTO 20008KT 10SM CLR 16/06 A3023 RMK AO2 SLP233 T01610056
KILE 311656Z AUTO 18006KT 10SM CLR 18/06 A3022 RMK AO2 SLP229 T01830056
KILE 311756Z AUTO VRB06KT 10SM CLR 21/06 A3019 RMK AO2 SLP217 T02060056 10206 20022 58017
KILE 311856Z AUTO 18005KT 10SM CLR 22/06 A3016 RMK AO2 SLP206 T02220056
KILE 311956Z AUTO VRB06KT 10SM CLR 23/04 A3012 RMK AO2 SLP191 T02280044
KILE 312056Z AUTO 15007KT 10SM CLR 22/06 A3009 RMK AO2 SLP184 T02220056 56033
KILE 312156Z AUTO 14008KT 10SM CLR 23/06 A3009 RMK AO2 SLP183 T02330061
KILE 312256Z AUTO 15008KT 10SM CLR 23/06 A3009 RMK AO2 SLP184 T02280056
KILE 312356Z AUTO 12004KT 10SM CLR 20/06 A3010 RMK AO2 SLP189 T02000061 10239 20200 53004
KILE 010056Z AUTO 16005KT 10SM CLR 17/06 A3012 RMK AO2 SLP198 T01720061